createdAt,value
2022-10-15T00:00:50.684Z,0.80
2022-10-15T00:03:18.168Z,0.88
2022-10-15T00:05:46.045Z,0.60
2022-10-15T00:08:14.140Z,0.60
2022-10-15T00:10:41.488Z,0.57
2022-10-15T00:13:08.815Z,0.73
2022-10-15T00:15:39.275Z,0.50
2022-10-15T00:18:06.803Z,0.60
2022-10-15T00:20:34.631Z,0.63
2022-10-15T00:23:02.088Z,0.80
2022-10-15T00:25:29.607Z,0.63
2022-10-15T00:27:56.962Z,0.52
2022-10-15T00:30:25.486Z,0.60
2022-10-15T00:32:52.985Z,0.52
2022-10-15T00:35:20.457Z,0.50
2022-10-15T00:37:47.927Z,0.60
2022-10-15T00:40:15.714Z,0.63
2022-10-15T00:42:43.192Z,0.50
2022-10-15T00:45:14.336Z,0.55
2022-10-15T00:47:48.044Z,0.80
2022-10-15T00:50:21.999Z,1.10
2022-10-15T00:53:09.609Z,1.20
2022-10-15T00:55:43.013Z,1.27
2022-10-15T00:58:16.301Z,0.80
2022-10-15T01:00:44.115Z,0.82
2022-10-15T01:03:13.005Z,0.80
2022-10-15T01:05:42.952Z,0.70
2022-10-15T01:08:11.884Z,0.70
2022-10-15T01:11:05.564Z,0.60
2022-10-15T01:13:47.592Z,0.70
2022-10-15T01:16:30.922Z,0.93
2022-10-15T01:19:08.017Z,0.73
2022-10-15T01:21:42.656Z,0.70
2022-10-15T01:27:23.218Z,0.70
2022-10-15T01:30:14.972Z,0.70
2022-10-15T01:33:01.186Z,0.77
2022-10-15T01:35:49.785Z,0.80
2022-10-15T01:38:37.647Z,0.80
2022-10-15T01:41:20.413Z,0.70
2022-10-15T01:44:03.962Z,0.60
2022-10-15T01:46:52.433Z,0.80
2022-10-15T01:49:28.179Z,0.60
2022-10-15T01:51:58.213Z,0.80
2022-10-15T01:54:28.110Z,0.70
2022-10-15T01:56:58.975Z,0.90
2022-10-15T01:59:30.518Z,0.70
2022-10-15T02:01:58.698Z,0.70
2022-10-15T02:04:29.199Z,0.93
2022-10-15T02:06:59.495Z,0.80
2022-10-15T02:09:42.736Z,0.70
2022-10-15T02:12:26.927Z,0.70
2022-10-15T02:15:27.824Z,0.60
2022-10-15T02:18:30.244Z,0.60
2022-10-15T02:21:06.974Z,0.63
2022-10-15T02:23:53.631Z,0.80
2022-10-15T02:26:27.955Z,0.90
2022-10-15T02:28:58.405Z,0.77
2022-10-15T02:31:29.403Z,0.70
2022-10-15T02:33:59.690Z,0.98
2022-10-15T02:36:27.493Z,0.90
2022-10-15T02:38:57.985Z,0.75
2022-10-15T02:41:28.910Z,0.90
2022-10-15T02:43:57.162Z,1.00
2022-10-15T02:46:24.867Z,0.82
2022-10-15T02:48:52.273Z,0.90
2022-10-15T02:51:19.637Z,1.08
2022-10-15T02:53:47.152Z,0.82
2022-10-15T02:56:14.652Z,0.90
2022-10-15T02:58:42.244Z,0.75
2022-10-15T03:01:09.799Z,0.85
2022-10-15T03:03:37.464Z,0.88
2022-10-15T03:06:06.225Z,0.70
2022-10-15T03:08:33.764Z,0.90
2022-10-15T03:11:03.374Z,0.70
2022-10-15T03:13:30.905Z,0.90
2022-10-15T03:15:58.340Z,0.93
2022-10-15T03:18:25.814Z,0.70
2022-10-15T03:20:56.953Z,0.75
2022-10-15T03:23:25.729Z,0.80
2022-10-15T03:26:02.858Z,1.17
2022-10-15T03:28:30.390Z,0.88
2022-10-15T03:30:57.974Z,1.10
2022-10-15T03:33:25.518Z,0.68
2022-10-15T03:35:54.666Z,1.20
2022-10-15T03:38:22.459Z,0.90
2022-10-15T03:40:51.285Z,0.75
2022-10-15T03:43:41.903Z,0.88
2022-10-15T03:46:10.768Z,1.30
2022-10-15T03:48:42.591Z,1.00
2022-10-15T03:51:15.573Z,0.85
2022-10-15T03:53:47.552Z,0.80
2022-10-15T03:56:15.151Z,1.13
2022-10-15T03:58:42.648Z,0.80
2022-10-15T04:01:16.973Z,1.00
2022-10-15T04:03:44.665Z,1.00
2022-10-15T04:06:12.518Z,0.70
2022-10-15T04:08:40.197Z,0.80
2022-10-15T04:11:20.923Z,0.90
2022-10-15T04:13:57.232Z,0.98
2022-10-15T04:16:24.680Z,0.70
2022-10-15T04:18:52.044Z,0.90
2022-10-15T04:21:19.691Z,0.88
2022-10-15T04:23:51.860Z,1.38
2022-10-15T04:26:27.775Z,0.70
2022-10-15T04:28:55.768Z,0.60
2022-10-15T04:31:24.222Z,0.80
2022-10-15T04:33:53.003Z,1.33
2022-10-15T04:36:20.553Z,0.73
2022-10-15T04:38:53.432Z,0.90
2022-10-15T04:41:34.344Z,0.68
2022-10-15T04:44:09.168Z,0.90
2022-10-15T04:46:38.204Z,0.82
2022-10-15T04:49:22.002Z,0.75
2022-10-15T04:51:49.751Z,0.90
2022-10-15T04:54:29.095Z,0.80
2022-10-15T04:56:59.374Z,1.15
2022-10-15T04:59:27.616Z,0.80
2022-10-15T05:02:13.615Z,1.02
2022-10-15T05:04:41.910Z,0.77
2022-10-15T05:07:09.937Z,0.80
2022-10-15T05:09:39.915Z,0.70
2022-10-15T05:12:09.584Z,0.98
2022-10-15T05:14:36.968Z,1.02
2022-10-15T05:17:08.858Z,0.80
2022-10-15T05:19:40.577Z,1.00
2022-10-15T05:22:15.004Z,0.80
2022-10-15T05:24:48.707Z,0.77
2022-10-15T05:27:27.431Z,0.80
2022-10-15T05:29:54.787Z,0.90
2022-10-15T05:32:27.203Z,0.82
2022-10-15T05:34:54.643Z,0.90
2022-10-15T05:37:22.531Z,0.80
2022-10-15T05:39:50.239Z,0.80
2022-10-15T05:42:17.808Z,0.80
2022-10-15T05:44:52.479Z,0.90
2022-10-15T05:47:21.413Z,0.90
2022-10-15T05:49:49.022Z,0.90
2022-10-15T05:55:14.573Z,1.10
2022-10-15T05:57:41.951Z,1.13
2022-10-15T06:00:09.911Z,1.20
2022-10-15T06:02:40.398Z,0.93
2022-10-15T06:05:08.299Z,0.80
2022-10-15T06:07:35.694Z,1.00
2022-10-15T06:10:05.919Z,1.13
2022-10-15T06:12:36.090Z,1.30
2022-10-15T06:15:03.606Z,1.20
2022-10-15T06:17:31.011Z,0.90
2022-10-15T06:19:58.455Z,1.15
2022-10-15T06:22:25.861Z,0.80
2022-10-15T06:24:53.548Z,1.33
2022-10-15T06:27:21.972Z,1.15
2022-10-15T06:29:49.583Z,0.90
2022-10-15T06:32:16.999Z,0.95
2022-10-15T06:34:44.686Z,0.93
2022-10-15T06:37:12.016Z,2.40
2022-10-15T06:39:40.448Z,0.98
2022-10-15T06:42:07.834Z,0.93
2022-10-15T06:44:39.798Z,1.25
2022-10-15T06:47:07.553Z,1.30
2022-10-15T06:49:34.982Z,0.98
2022-10-15T06:52:03.686Z,1.35
2022-10-15T06:54:31.489Z,1.00
2022-10-15T06:56:58.755Z,1.10
2022-10-15T06:59:25.968Z,1.45
2022-10-15T07:01:54.761Z,1.05
2022-10-15T07:04:23.558Z,1.15
2022-10-15T07:06:50.838Z,1.30
2022-10-15T07:09:20.711Z,1.20
2022-10-15T07:11:48.020Z,1.40
2022-10-15T07:14:15.313Z,1.38
2022-10-15T07:16:42.583Z,1.33
2022-10-15T07:19:10.196Z,1.48
2022-10-15T07:21:37.457Z,1.27
2022-10-15T07:24:05.003Z,1.45
2022-10-15T07:26:33.804Z,1.10
2022-10-15T07:29:02.852Z,1.20
2022-10-15T07:31:30.240Z,1.00
2022-10-15T07:33:57.549Z,1.00
2022-10-15T07:36:26.217Z,0.80
2022-10-15T07:38:53.709Z,1.00
2022-10-15T07:41:20.979Z,0.80
2022-10-15T07:43:48.318Z,0.82
2022-10-15T07:46:15.567Z,0.88
2022-10-15T07:48:42.770Z,0.63
2022-10-15T07:51:11.838Z,0.65
2022-10-15T07:53:39.098Z,0.80
2022-10-15T07:56:08.437Z,1.50
2022-10-15T07:58:38.139Z,0.70
2022-10-15T08:01:06.909Z,0.70
2022-10-15T08:03:35.483Z,0.95
2022-10-15T08:06:04.943Z,0.80
2022-10-15T08:08:32.247Z,0.50
2022-10-15T08:11:04.743Z,0.88
2022-10-15T08:13:31.915Z,0.68
2022-10-15T08:16:02.208Z,0.95
2022-10-15T08:18:29.375Z,0.57
2022-10-15T08:21:00.351Z,1.00
2022-10-15T08:23:28.086Z,0.50
2022-10-15T08:25:57.405Z,0.60
2022-10-15T08:28:24.618Z,0.40
2022-10-15T08:30:51.841Z,0.40
2022-10-15T08:33:19.005Z,0.38
2022-10-15T08:35:46.188Z,0.30
2022-10-15T08:38:16.263Z,0.32
2022-10-15T08:40:52.337Z,0.30
2022-10-15T08:43:30.636Z,0.70
2022-10-15T08:46:04.161Z,0.50
2022-10-15T08:48:38.135Z,0.45
2022-10-15T08:51:23.447Z,0.20
2022-10-15T08:53:54.945Z,0.30
2022-10-15T08:56:33.263Z,0.30
2022-10-15T08:59:08.001Z,0.38
2022-10-15T09:01:47.141Z,0.30
2022-10-15T09:04:37.761Z,0.30
2022-10-15T09:07:15.327Z,0.22
2022-10-15T09:09:50.403Z,0.30
2022-10-15T09:12:58.516Z,0.20
2022-10-15T09:15:30.910Z,0.20
2022-10-15T09:17:58.165Z,0.20
2022-10-15T09:20:33.541Z,0.40
2022-10-15T09:23:01.329Z,0.20
2022-10-15T09:25:35.592Z,0.20
2022-10-15T09:28:11.232Z,0.10
2022-10-15T09:30:46.110Z,1.25
2022-10-15T09:33:37.014Z,0.20
2022-10-15T09:36:32.844Z,0.30
2022-10-15T09:39:21.725Z,0.28
2022-10-15T09:42:10.414Z,0.30
2022-10-15T09:44:41.795Z,0.30
2022-10-15T09:47:30.106Z,0.25
2022-10-15T09:50:00.893Z,0.30
2022-10-15T09:52:49.154Z,0.30
2022-10-15T09:55:31.891Z,0.30
2022-10-15T09:58:11.621Z,0.30
2022-10-15T10:00:54.722Z,0.20
2022-10-15T10:03:25.027Z,0.25
2022-10-15T10:06:02.138Z,0.30
2022-10-15T10:11:16.399Z,0.30
2022-10-15T10:13:49.854Z,0.40
2022-10-15T10:16:18.898Z,0.20
2022-10-15T10:19:06.223Z,0.30
2022-10-15T10:21:36.076Z,0.30
2022-10-15T10:24:30.698Z,0.30
2022-10-15T10:26:59.409Z,0.30
2022-10-15T10:29:35.487Z,0.50
2022-10-15T10:32:21.439Z,0.43
2022-10-15T10:34:52.716Z,0.20
2022-10-15T10:37:21.532Z,0.22
2022-10-15T10:40:32.358Z,0.30
2022-10-15T10:43:17.763Z,0.30
2022-10-15T10:45:55.359Z,0.30
2022-10-15T10:48:27.220Z,0.38
2022-10-15T10:51:12.916Z,0.52
2022-10-15T10:53:51.495Z,0.20
2022-10-15T10:56:34.597Z,0.30
2022-10-15T10:59:19.455Z,0.38
2022-10-15T11:01:50.273Z,0.40
2022-10-15T11:04:38.650Z,0.32
2022-10-15T11:07:24.111Z,0.30
2022-10-15T11:10:10.018Z,0.50
2022-10-15T11:13:30.393Z,0.20
2022-10-15T11:16:21.416Z,0.30
2022-10-15T11:19:19.774Z,0.47
2022-10-15T11:22:34.808Z,0.40
2022-10-15T11:25:25.956Z,0.43
2022-10-15T11:28:08.004Z,0.50
2022-10-15T11:31:03.455Z,0.40
2022-10-15T11:33:55.553Z,0.20
2022-10-15T11:36:50.443Z,0.50
2022-10-15T11:39:51.901Z,0.20
2022-10-15T11:42:24.050Z,0.30
2022-10-15T11:44:51.458Z,0.50
2022-10-15T11:48:00.404Z,1.17
2022-10-15T11:50:35.102Z,0.40
2022-10-15T11:53:34.941Z,0.40
2022-10-15T11:56:32.619Z,0.30
2022-10-15T11:59:19.748Z,0.52
2022-10-15T12:02:06.458Z,0.40
2022-10-15T12:04:42.377Z,0.45
2022-10-15T12:07:16.969Z,0.50
2022-10-15T12:12:13.940Z,0.30
2022-10-15T12:14:54.609Z,0.50
2022-10-15T12:17:48.831Z,0.60
2022-10-15T12:20:20.000Z,1.25
2022-10-15T12:22:47.160Z,0.43
2022-10-15T12:25:34.617Z,0.40
2022-10-15T12:28:15.098Z,0.40
2022-10-15T12:30:52.849Z,0.32
2022-10-15T12:33:29.015Z,0.50
2022-10-15T12:36:03.295Z,0.40
2022-10-15T12:38:40.084Z,0.50
2022-10-15T12:41:13.997Z,0.70
2022-10-15T12:43:45.260Z,0.50
2022-10-15T12:46:14.338Z,0.50
2022-10-15T12:48:45.135Z,0.30
2022-10-15T12:51:24.171Z,0.50
2022-10-15T12:53:56.263Z,0.40
2022-10-15T12:56:35.297Z,0.38
2022-10-15T12:59:02.591Z,0.30
2022-10-15T13:01:46.618Z,0.40
2022-10-15T13:04:13.799Z,0.60
2022-10-15T13:06:41.133Z,0.30
2022-10-15T13:09:11.684Z,0.40
2022-10-15T13:14:42.903Z,0.50
2022-10-15T13:17:21.364Z,0.40
2022-10-15T13:20:08.225Z,0.60
2022-10-15T13:22:36.792Z,0.40
2022-10-15T13:25:04.542Z,0.50
2022-10-15T13:27:40.120Z,0.50
2022-10-15T13:30:13.405Z,0.60
2022-10-15T13:32:52.307Z,0.60
2022-10-15T13:35:28.217Z,0.60
2022-10-15T13:37:57.767Z,0.50
2022-10-15T13:40:29.718Z,0.40
2022-10-15T13:43:03.842Z,0.80
2022-10-15T13:45:31.335Z,0.65
2022-10-15T13:47:59.220Z,0.47
2022-10-15T13:50:35.090Z,0.55
2022-10-15T13:53:10.127Z,0.57
2022-10-15T13:55:40.140Z,0.50
2022-10-15T13:58:30.107Z,0.68
2022-10-15T14:01:15.347Z,0.70
2022-10-15T14:04:02.953Z,0.70
2022-10-15T14:06:35.540Z,0.60
2022-10-15T14:09:19.999Z,1.60
2022-10-15T14:11:47.317Z,0.77
2022-10-15T14:14:34.595Z,0.50
2022-10-15T14:17:07.791Z,0.90
2022-10-15T14:19:38.616Z,0.90
2022-10-15T14:22:06.763Z,0.60
2022-10-15T14:24:38.614Z,0.93
2022-10-15T14:27:15.918Z,0.65
2022-10-15T14:29:47.823Z,0.80
2022-10-15T14:32:44.014Z,0.63
2022-10-15T14:35:35.709Z,0.57
2022-10-15T14:38:10.543Z,0.60
2022-10-15T14:40:37.693Z,0.77
2022-10-15T14:43:17.449Z,0.57
2022-10-15T14:45:53.891Z,0.93
2022-10-15T14:48:37.410Z,0.73
2022-10-15T14:51:08.091Z,0.63
2022-10-15T14:53:38.616Z,0.70
2022-10-15T14:56:19.945Z,0.95
2022-10-15T14:58:53.368Z,0.98
2022-10-15T15:01:21.147Z,0.80
2022-10-15T15:03:50.799Z,0.98
2022-10-15T15:06:18.389Z,0.60
2022-10-15T15:08:46.229Z,0.85
2022-10-15T15:11:20.580Z,0.70
2022-10-15T15:13:49.483Z,0.70
2022-10-15T15:16:17.806Z,0.98
2022-10-15T15:18:46.599Z,0.90
2022-10-15T15:21:20.895Z,1.63
2022-10-15T15:23:48.791Z,1.00
2022-10-15T15:26:16.138Z,1.33
2022-10-15T15:28:43.498Z,0.85
2022-10-15T15:31:16.859Z,0.90
2022-10-15T15:33:44.134Z,0.77
2022-10-15T15:36:17.645Z,0.40
2022-10-15T15:38:49.966Z,0.30
2022-10-15T15:41:19.879Z,0.50
2022-10-15T15:43:47.814Z,0.60
2022-10-15T15:46:15.177Z,0.80
2022-10-15T15:48:42.411Z,0.45
2022-10-15T15:51:24.534Z,0.90
2022-10-15T15:53:52.032Z,0.82
2022-10-15T15:56:19.384Z,0.30
2022-10-15T15:58:46.894Z,0.63
2022-10-15T16:01:14.293Z,0.82
2022-10-15T16:03:41.512Z,0.55
2022-10-15T16:06:09.015Z,0.60
2022-10-15T16:08:37.245Z,1.02
2022-10-15T16:11:06.253Z,0.40
2022-10-15T16:13:34.126Z,0.70
2022-10-15T16:16:01.367Z,0.60
2022-10-15T16:18:28.701Z,0.50
2022-10-15T16:20:55.935Z,0.63
2022-10-15T16:23:23.202Z,0.50
2022-10-15T16:25:50.632Z,1.67
2022-10-15T16:28:17.931Z,0.50
2022-10-15T16:30:45.199Z,0.50
2022-10-15T16:33:12.479Z,0.60
2022-10-15T16:35:39.763Z,0.70
2022-10-15T16:38:07.562Z,1.02
2022-10-15T16:40:35.488Z,0.47
2022-10-15T16:43:02.711Z,0.60
2022-10-15T16:45:29.981Z,0.50
2022-10-15T16:47:57.351Z,0.70
2022-10-15T16:50:24.598Z,0.68
2022-10-15T16:52:51.881Z,0.40
2022-10-15T16:55:19.172Z,0.50
2022-10-15T16:57:46.492Z,0.60
2022-10-15T17:00:14.142Z,0.77
2022-10-15T17:02:41.471Z,0.60
2022-10-15T17:05:08.965Z,0.60
2022-10-15T17:07:36.259Z,0.77
2022-10-15T17:10:04.066Z,1.10
2022-10-15T17:12:31.342Z,1.45
2022-10-15T17:14:58.592Z,2.13
2022-10-15T17:17:25.911Z,2.38
2022-10-15T17:19:53.429Z,1.35
2022-10-15T17:22:21.155Z,1.33
2022-10-15T17:24:49.729Z,1.40
2022-10-15T17:27:16.982Z,1.25
2022-10-15T17:29:44.725Z,1.05
2022-10-15T17:32:12.066Z,1.73
2022-10-15T17:34:39.290Z,1.55
2022-10-15T17:37:06.645Z,1.40
2022-10-15T17:39:35.358Z,2.17
2022-10-15T17:42:02.695Z,1.40
2022-10-15T17:44:29.999Z,1.20
2022-10-15T17:46:57.368Z,1.35
2022-10-15T17:49:28.387Z,1.55
2022-10-15T17:51:55.748Z,1.92
2022-10-15T17:54:23.044Z,2.40
2022-10-15T17:56:50.420Z,1.42
2022-10-15T17:59:18.200Z,2.20
2022-10-15T18:01:57.792Z,1.65
2022-10-15T18:04:27.120Z,1.30
2022-10-15T18:06:54.386Z,1.23
2022-10-15T18:09:26.092Z,1.30
2022-10-15T18:11:56.708Z,1.27
2022-10-15T18:14:29.162Z,1.23
2022-10-15T18:16:57.057Z,1.42
2022-10-15T18:19:26.742Z,0.98
2022-10-15T18:21:55.409Z,1.08
2022-10-15T18:24:23.676Z,1.00
2022-10-15T18:26:51.586Z,4.68
2022-10-15T18:29:19.779Z,2.72
2022-10-15T18:31:47.565Z,2.80
2022-10-15T18:34:15.045Z,2.08
2022-10-15T18:36:43.795Z,1.55
2022-10-15T18:39:11.836Z,1.42
2022-10-15T18:41:40.371Z,0.75
2022-10-15T18:44:14.893Z,1.40
2022-10-15T18:46:45.092Z,1.17
2022-10-15T18:49:13.920Z,0.98
2022-10-15T18:51:41.996Z,1.27
2022-10-15T18:54:10.922Z,0.90
2022-10-15T18:56:39.257Z,1.55
2022-10-15T18:59:06.580Z,1.00
2022-10-15T19:01:39.160Z,0.80
2022-10-15T19:04:10.125Z,1.08
2022-10-15T19:06:41.176Z,1.17
2022-10-15T19:09:12.513Z,0.70
2022-10-15T19:11:41.008Z,0.80
2022-10-15T19:14:08.683Z,1.23
2022-10-15T19:16:36.082Z,1.30
2022-10-15T19:19:07.506Z,1.10
2022-10-15T19:21:37.545Z,1.35
2022-10-15T19:24:05.629Z,1.45
2022-10-15T19:26:34.511Z,1.20
2022-10-15T19:29:02.570Z,3.15
2022-10-15T19:31:39.183Z,0.90
2022-10-15T19:34:07.250Z,1.08
2022-10-15T19:36:41.494Z,1.00
2022-10-15T19:39:17.352Z,1.02
2022-10-15T19:41:45.483Z,1.75
2022-10-15T19:44:14.538Z,1.38
2022-10-15T19:46:41.982Z,1.00
2022-10-15T19:49:12.070Z,0.88
2022-10-15T19:51:39.768Z,0.70
2022-10-15T19:54:07.318Z,1.15
2022-10-15T19:56:34.736Z,0.93
2022-10-15T19:59:04.591Z,1.55
2022-10-15T20:01:33.001Z,1.33
2022-10-15T20:04:05.744Z,0.90
2022-10-15T20:06:36.224Z,1.10
2022-10-15T20:09:04.271Z,0.80
2022-10-15T20:11:32.249Z,1.70
2022-10-15T20:14:00.533Z,1.35
2022-10-15T20:16:32.489Z,0.90
2022-10-15T20:19:02.421Z,1.05
2022-10-15T20:21:29.843Z,1.55
2022-10-15T20:23:57.209Z,1.10
2022-10-15T20:26:24.582Z,1.40
2022-10-15T20:28:52.155Z,1.23
2022-10-15T20:31:21.552Z,1.10
2022-10-15T20:33:49.634Z,1.40
2022-10-15T20:36:22.522Z,0.80
2022-10-15T20:38:50.781Z,1.35
2022-10-15T20:41:18.732Z,1.50
2022-10-15T20:43:47.379Z,1.17
2022-10-15T20:46:22.092Z,1.13
2022-10-15T20:48:50.273Z,1.27
2022-10-15T20:51:23.324Z,3.00
2022-10-15T20:53:53.884Z,1.20
2022-10-15T20:56:21.229Z,1.00
2022-10-15T20:58:48.585Z,1.15
2022-10-15T21:01:16.683Z,1.10
2022-10-15T21:03:44.075Z,1.50
2022-10-15T21:06:11.354Z,1.30
2022-10-15T21:08:38.740Z,1.30
2022-10-15T21:11:08.385Z,1.17
2022-10-15T21:13:36.301Z,1.33
2022-10-15T21:16:06.534Z,1.27
2022-10-15T21:18:36.125Z,1.30
2022-10-15T21:21:13.020Z,1.05
2022-10-15T21:23:42.434Z,1.30
2022-10-15T21:26:15.594Z,1.25
2022-10-15T21:28:44.021Z,1.15
2022-10-15T21:31:16.804Z,2.00
2022-10-15T21:33:44.550Z,1.33
2022-10-15T21:36:22.165Z,1.30
2022-10-15T21:38:53.426Z,2.20
2022-10-15T21:41:21.769Z,1.90
2022-10-15T21:46:22.375Z,1.63
2022-10-15T21:48:50.092Z,1.30
2022-10-15T21:51:20.933Z,1.60
2022-10-15T21:53:48.532Z,1.70
2022-10-15T21:56:16.813Z,2.47
2022-10-15T21:58:44.471Z,1.17
2022-10-15T22:01:15.643Z,1.85
2022-10-15T22:03:45.444Z,1.10
2022-10-15T22:06:14.095Z,1.40
2022-10-15T22:08:42.573Z,1.98
2022-10-15T22:11:16.663Z,2.10
2022-10-15T22:13:46.240Z,0.88
2022-10-15T22:16:14.656Z,1.25
2022-10-15T22:18:42.174Z,1.00
2022-10-15T22:21:17.731Z,1.85
2022-10-15T22:23:49.121Z,1.60
2022-10-15T22:26:19.172Z,1.67
2022-10-15T22:28:47.123Z,1.67
2022-10-15T22:31:16.850Z,1.38
2022-10-15T22:33:45.891Z,1.33
2022-10-15T22:36:19.298Z,1.20
2022-10-15T22:38:48.654Z,1.67
2022-10-15T22:41:16.878Z,2.03
2022-10-15T22:43:44.790Z,1.38
2022-10-15T22:46:13.217Z,1.17
2022-10-15T22:48:42.094Z,1.30
2022-10-15T22:51:12.419Z,1.20
2022-10-15T22:53:40.585Z,1.48
2022-10-15T22:56:18.811Z,1.90
2022-10-15T22:58:47.137Z,1.40
2022-10-15T23:01:17.411Z,2.13
2022-10-15T23:03:47.373Z,1.83
2022-10-15T23:06:15.542Z,1.73
2022-10-15T23:08:43.676Z,1.27
2022-10-15T23:11:12.228Z,1.85
2022-10-15T23:13:40.453Z,1.83
2022-10-15T23:16:18.250Z,1.23
2022-10-15T23:18:47.120Z,2.13
2022-10-15T23:21:20.872Z,2.78
2022-10-15T23:23:48.418Z,1.80
2022-10-15T23:26:16.685Z,1.67
2022-10-15T23:28:45.129Z,1.17
2022-10-15T23:31:17.375Z,1.90
2022-10-15T23:33:45.318Z,1.30
2022-10-15T23:36:13.161Z,2.05
2022-10-15T23:38:40.554Z,2.35
2022-10-15T23:41:10.292Z,1.10
2022-10-15T23:43:37.962Z,2.95
2022-10-15T23:46:05.413Z,2.08
2022-10-15T23:48:32.792Z,1.20
2022-10-15T23:51:03.377Z,1.92
2022-10-15T23:53:33.324Z,1.67
2022-10-15T23:56:03.906Z,2.00
2022-10-15T23:58:32.451Z,1.40
